sensor_id;sensor_type;location;lat;lon;timestamp;P1;durP1;ratioP1;P2;durP2;ratioP2
62050;SDS011;48008;51.204;6.766;2022-10-12T00:02:16;30.98;;;11.07;;
62050;SDS011;48008;51.204;6.766;2022-10-12T00:04:43;30.67;;;10.45;;
62050;SDS011;48008;51.204;6.766;2022-10-12T00:07:10;32.45;;;10.43;;
62050;SDS011;48008;51.204;6.766;2022-10-12T00:09:36;29.73;;;11.45;;
62050;SDS011;48008;51.204;6.766;2022-10-12T00:12:03;23.38;;;10.13;;
62050;SDS011;48008;51.204;6.766;2022-10-12T00:14:30;25.83;;;10.90;;
62050;SDS011;48008;51.204;6.766;2022-10-12T00:16:56;31.98;;;10.52;;
62050;SDS011;48008;51.204;6.766;2022-10-12T00:19:23;28.95;;;10.20;;
62050;SDS011;48008;51.204;6.766;2022-10-12T00:21:50;34.15;;;10.30;;
62050;SDS011;48008;51.204;6.766;2022-10-12T00:24:16;31.00;;;9.38;;
62050;SDS011;48008;51.204;6.766;2022-10-12T00:26:43;29.60;;;9.80;;
62050;SDS011;48008;51.204;6.766;2022-10-12T00:29:11;32.17;;;9.27;;
62050;SDS011;48008;51.204;6.766;2022-10-12T00:31:37;20.63;;;8.82;;
62050;SDS011;48008;51.204;6.766;2022-10-12T00:34:04;33.50;;;9.80;;
62050;SDS011;48008;51.204;6.766;2022-10-12T00:36:32;29.50;;;9.38;;
62050;SDS011;48008;51.204;6.766;2022-10-12T00:39:01;28.27;;;9.00;;
62050;SDS011;48008;51.204;6.766;2022-10-12T00:41:31;25.40;;;8.75;;
62050;SDS011;48008;51.204;6.766;2022-10-12T00:44:00;26.08;;;8.23;;
62050;SDS011;48008;51.204;6.766;2022-10-12T00:46:42;25.13;;;8.80;;
62050;SDS011;48008;51.204;6.766;2022-10-12T00:49:15;28.83;;;8.93;;
62050;SDS011;48008;51.204;6.766;2022-10-12T00:51:47;25.90;;;9.25;;
62050;SDS011;48008;51.204;6.766;2022-10-12T00:54:18;28.35;;;9.27;;
62050;SDS011;48008;51.204;6.766;2022-10-12T00:56:51;25.13;;;8.88;;
62050;SDS011;48008;51.204;6.766;2022-10-12T00:59:21;23.48;;;9.02;;
62050;SDS011;48008;51.204;6.766;2022-10-12T01:01:59;23.67;;;8.43;;
62050;SDS011;48008;51.204;6.766;2022-10-12T01:04:26;27.48;;;9.15;;
62050;SDS011;48008;51.204;6.766;2022-10-12T01:06:52;26.95;;;8.55;;
62050;SDS011;48008;51.204;6.766;2022-10-12T01:09:19;28.95;;;9.77;;
62050;SDS011;48008;51.204;6.766;2022-10-12T01:11:46;22.20;;;8.55;;
62050;SDS011;48008;51.204;6.766;2022-10-12T01:14:13;24.40;;;8.93;;
62050;SDS011;48008;51.204;6.766;2022-10-12T01:22:15;25.95;;;8.38;;
62050;SDS011;48008;51.204;6.766;2022-10-12T01:24:52;23.30;;;9.07;;
62050;SDS011;48008;51.204;6.766;2022-10-12T01:27:28;24.73;;;8.50;;
62050;SDS011;48008;51.204;6.766;2022-10-12T01:30:11;24.35;;;8.73;;
62050;SDS011;48008;51.204;6.766;2022-10-12T01:33:16;25.33;;;8.65;;
62050;SDS011;48008;51.204;6.766;2022-10-12T01:38:58;23.80;;;7.68;;
62050;SDS011;48008;51.204;6.766;2022-10-12T01:41:28;22.30;;;7.63;;
62050;SDS011;48008;51.204;6.766;2022-10-12T01:43:57;34.95;;;8.07;;
62050;SDS011;48008;51.204;6.766;2022-10-12T01:49:00;22.63;;;7.50;;
62050;SDS011;48008;51.204;6.766;2022-10-12T01:51:29;18.55;;;7.47;;
62050;SDS011;48008;51.204;6.766;2022-10-12T01:57:20;22.08;;;8.02;;
62050;SDS011;48008;51.204;6.766;2022-10-12T02:00:12;25.63;;;8.38;;
62050;SDS011;48008;51.204;6.766;2022-10-12T02:08:17;23.40;;;8.18;;
62050;SDS011;48008;51.204;6.766;2022-10-12T02:11:09;26.38;;;8.00;;
62050;SDS011;48008;51.204;6.766;2022-10-12T02:13:38;23.25;;;8.73;;
62050;SDS011;48008;51.204;6.766;2022-10-12T02:18:41;22.15;;;7.95;;
62050;SDS011;48008;51.204;6.766;2022-10-12T02:21:11;29.35;;;9.15;;
62050;SDS011;48008;51.204;6.766;2022-10-12T02:23:41;22.23;;;8.57;;
62050;SDS011;48008;51.204;6.766;2022-10-12T02:26:10;26.60;;;8.85;;
62050;SDS011;48008;51.204;6.766;2022-10-12T02:28:38;25.45;;;8.73;;
62050;SDS011;48008;51.204;6.766;2022-10-12T02:31:15;28.58;;;8.90;;
62050;SDS011;48008;51.204;6.766;2022-10-12T02:34:06;24.67;;;8.13;;
62050;SDS011;48008;51.204;6.766;2022-10-12T02:36:54;23.17;;;8.57;;
62050;SDS011;48008;51.204;6.766;2022-10-12T02:39:27;26.38;;;9.00;;
62050;SDS011;48008;51.204;6.766;2022-10-12T02:42:00;24.85;;;8.88;;
62050;SDS011;48008;51.204;6.766;2022-10-12T02:44:35;22.15;;;8.73;;
62050;SDS011;48008;51.204;6.766;2022-10-12T02:47:04;24.90;;;9.15;;
62050;SDS011;48008;51.204;6.766;2022-10-12T02:49:33;31.55;;;9.30;;
62050;SDS011;48008;51.204;6.766;2022-10-12T02:52:02;30.30;;;9.55;;
62050;SDS011;48008;51.204;6.766;2022-10-12T02:54:30;28.15;;;8.48;;
62050;SDS011;48008;51.204;6.766;2022-10-12T02:56:57;26.73;;;9.20;;
62050;SDS011;48008;51.204;6.766;2022-10-12T02:59:25;24.08;;;9.30;;
62050;SDS011;48008;51.204;6.766;2022-10-12T03:01:51;26.23;;;9.50;;
62050;SDS011;48008;51.204;6.766;2022-10-12T03:04:18;25.15;;;9.18;;
62050;SDS011;48008;51.204;6.766;2022-10-12T03:06:45;29.83;;;8.45;;
62050;SDS011;48008;51.204;6.766;2022-10-12T03:09:12;28.02;;;8.93;;
62050;SDS011;48008;51.204;6.766;2022-10-12T03:11:39;22.70;;;8.32;;
62050;SDS011;48008;51.204;6.766;2022-10-12T03:14:10;22.33;;;8.32;;
62050;SDS011;48008;51.204;6.766;2022-10-12T03:16:38;29.80;;;9.13;;
62050;SDS011;48008;51.204;6.766;2022-10-12T03:19:04;27.50;;;8.60;;
62050;SDS011;48008;51.204;6.766;2022-10-12T03:21:31;25.27;;;8.60;;
62050;SDS011;48008;51.204;6.766;2022-10-12T03:23:57;23.92;;;8.52;;
62050;SDS011;48008;51.204;6.766;2022-10-12T03:26:24;29.13;;;8.35;;
62050;SDS011;48008;51.204;6.766;2022-10-12T03:28:51;26.02;;;9.00;;
62050;SDS011;48008;51.204;6.766;2022-10-12T03:31:17;25.60;;;9.00;;
62050;SDS011;48008;51.204;6.766;2022-10-12T03:33:44;28.70;;;9.43;;
62050;SDS011;48008;51.204;6.766;2022-10-12T03:36:11;28.27;;;8.63;;
62050;SDS011;48008;51.204;6.766;2022-10-12T03:38:38;25.27;;;9.18;;
62050;SDS011;48008;51.204;6.766;2022-10-12T03:41:04;25.75;;;9.75;;
62050;SDS011;48008;51.204;6.766;2022-10-12T03:43:32;26.45;;;8.75;;
62050;SDS011;48008;51.204;6.766;2022-10-12T03:45:59;28.05;;;9.15;;
62050;SDS011;48008;51.204;6.766;2022-10-12T03:48:26;21.55;;;8.18;;
62050;SDS011;48008;51.204;6.766;2022-10-12T03:50:52;25.02;;;9.30;;
62050;SDS011;48008;51.204;6.766;2022-10-12T03:53:19;23.70;;;8.50;;
62050;SDS011;48008;51.204;6.766;2022-10-12T03:55:46;25.20;;;9.73;;
62050;SDS011;48008;51.204;6.766;2022-10-12T03:58:13;27.60;;;8.63;;
62050;SDS011;48008;51.204;6.766;2022-10-12T04:00:41;27.00;;;9.30;;
62050;SDS011;48008;51.204;6.766;2022-10-12T04:03:07;27.63;;;9.23;;
62050;SDS011;48008;51.204;6.766;2022-10-12T04:05:34;28.13;;;9.18;;
62050;SDS011;48008;51.204;6.766;2022-10-12T04:08:01;22.58;;;8.57;;
62050;SDS011;48008;51.204;6.766;2022-10-12T04:10:28;34.38;;;8.98;;
62050;SDS011;48008;51.204;6.766;2022-10-12T04:12:55;28.75;;;8.80;;
62050;SDS011;48008;51.204;6.766;2022-10-12T04:15:21;25.35;;;9.20;;
62050;SDS011;48008;51.204;6.766;2022-10-12T04:17:53;31.48;;;9.38;;
62050;SDS011;48008;51.204;6.766;2022-10-12T04:20:20;28.85;;;9.15;;
62050;SDS011;48008;51.204;6.766;2022-10-12T04:22:46;29.70;;;9.77;;
62050;SDS011;48008;51.204;6.766;2022-10-12T04:25:13;25.13;;;9.43;;
62050;SDS011;48008;51.204;6.766;2022-10-12T04:27:40;20.63;;;10.25;;
62050;SDS011;48008;51.204;6.766;2022-10-12T04:30:06;30.15;;;9.73;;
62050;SDS011;48008;51.204;6.766;2022-10-12T04:32:34;25.20;;;9.45;;
62050;SDS011;48008;51.204;6.766;2022-10-12T04:35:00;27.00;;;9.23;;
62050;SDS011;48008;51.204;6.766;2022-10-12T04:37:27;23.35;;;9.07;;
62050;SDS011;48008;51.204;6.766;2022-10-12T04:39:54;24.15;;;8.82;;
62050;SDS011;48008;51.204;6.766;2022-10-12T04:42:21;26.00;;;9.23;;
62050;SDS011;48008;51.204;6.766;2022-10-12T04:44:48;19.67;;;9.00;;
62050;SDS011;48008;51.204;6.766;2022-10-12T04:47:14;24.52;;;9.18;;
62050;SDS011;48008;51.204;6.766;2022-10-12T04:49:41;26.73;;;9.23;;
62050;SDS011;48008;51.204;6.766;2022-10-12T04:52:08;27.77;;;8.90;;
62050;SDS011;48008;51.204;6.766;2022-10-12T04:54:34;32.50;;;9.43;;
62050;SDS011;48008;51.204;6.766;2022-10-12T04:57:01;28.30;;;9.68;;
62050;SDS011;48008;51.204;6.766;2022-10-12T04:59:27;25.80;;;9.07;;
62050;SDS011;48008;51.204;6.766;2022-10-12T05:01:56;26.15;;;9.63;;
62050;SDS011;48008;51.204;6.766;2022-10-12T05:04:22;32.20;;;9.23;;
62050;SDS011;48008;51.204;6.766;2022-10-12T05:06:49;29.73;;;8.75;;
62050;SDS011;48008;51.204;6.766;2022-10-12T05:09:16;19.70;;;8.68;;
62050;SDS011;48008;51.204;6.766;2022-10-12T05:11:43;25.77;;;9.18;;
62050;SDS011;48008;51.204;6.766;2022-10-12T05:14:09;25.45;;;8.32;;
62050;SDS011;48008;51.204;6.766;2022-10-12T05:16:36;25.92;;;8.98;;
62050;SDS011;48008;51.204;6.766;2022-10-12T05:19:03;28.42;;;9.38;;
62050;SDS011;48008;51.204;6.766;2022-10-12T05:21:29;27.80;;;9.13;;
62050;SDS011;48008;51.204;6.766;2022-10-12T05:23:56;22.98;;;8.40;;
62050;SDS011;48008;51.204;6.766;2022-10-12T05:26:23;33.78;;;9.35;;
62050;SDS011;48008;51.204;6.766;2022-10-12T05:28:49;25.60;;;9.18;;
62050;SDS011;48008;51.204;6.766;2022-10-12T05:31:16;24.05;;;9.57;;
62050;SDS011;48008;51.204;6.766;2022-10-12T05:33:43;28.00;;;9.55;;
62050;SDS011;48008;51.204;6.766;2022-10-12T05:36:09;23.65;;;8.50;;
62050;SDS011;48008;51.204;6.766;2022-10-12T05:38:36;33.05;;;9.60;;
62050;SDS011;48008;51.204;6.766;2022-10-12T05:41:03;25.38;;;8.88;;
62050;SDS011;48008;51.204;6.766;2022-10-12T05:43:30;23.90;;;9.18;;
62050;SDS011;48008;51.204;6.766;2022-10-12T05:45:57;28.85;;;9.20;;
62050;SDS011;48008;51.204;6.766;2022-10-12T05:48:24;27.98;;;9.10;;
62050;SDS011;48008;51.204;6.766;2022-10-12T05:50:51;29.50;;;8.63;;
62050;SDS011;48008;51.204;6.766;2022-10-12T05:53:20;28.58;;;8.95;;
62050;SDS011;48008;51.204;6.766;2022-10-12T05:55:51;30.55;;;9.23;;
62050;SDS011;48008;51.204;6.766;2022-10-12T05:58:20;30.00;;;8.80;;
62050;SDS011;48008;51.204;6.766;2022-10-12T06:00:47;29.05;;;8.98;;
62050;SDS011;48008;51.204;6.766;2022-10-12T06:03:16;24.88;;;9.80;;
62050;SDS011;48008;51.204;6.766;2022-10-12T06:05:43;30.08;;;8.73;;
62050;SDS011;48008;51.204;6.766;2022-10-12T06:08:10;24.70;;;8.40;;
62050;SDS011;48008;51.204;6.766;2022-10-12T06:10:42;22.35;;;8.73;;
62050;SDS011;48008;51.204;6.766;2022-10-12T06:13:15;28.67;;;9.32;;
62050;SDS011;48008;51.204;6.766;2022-10-12T06:15:43;26.85;;;8.93;;
62050;SDS011;48008;51.204;6.766;2022-10-12T06:18:11;23.85;;;8.77;;
62050;SDS011;48008;51.204;6.766;2022-10-12T06:20:39;23.10;;;9.05;;
62050;SDS011;48008;51.204;6.766;2022-10-12T06:23:06;26.05;;;9.15;;
62050;SDS011;48008;51.204;6.766;2022-10-12T06:25:32;26.10;;;8.48;;
62050;SDS011;48008;51.204;6.766;2022-10-12T06:27:59;25.38;;;8.18;;
62050;SDS011;48008;51.204;6.766;2022-10-12T06:30:25;24.73;;;8.43;;
62050;SDS011;48008;51.204;6.766;2022-10-12T06:32:52;25.52;;;8.13;;
62050;SDS011;48008;51.204;6.766;2022-10-12T06:35:19;22.15;;;7.32;;
62050;SDS011;48008;51.204;6.766;2022-10-12T06:37:47;61.92;;;26.55;;
62050;SDS011;48008;51.204;6.766;2022-10-12T06:40:16;28.38;;;10.25;;
62050;SDS011;48008;51.204;6.766;2022-10-12T06:42:43;28.23;;;8.88;;
62050;SDS011;48008;51.204;6.766;2022-10-12T06:45:10;26.55;;;9.43;;
62050;SDS011;48008;51.204;6.766;2022-10-12T06:47:37;20.65;;;8.02;;
62050;SDS011;48008;51.204;6.766;2022-10-12T06:50:04;21.17;;;7.93;;
62050;SDS011;48008;51.204;6.766;2022-10-12T06:52:32;23.60;;;8.27;;
62050;SDS011;48008;51.204;6.766;2022-10-12T06:54:58;32.10;;;8.90;;
62050;SDS011;48008;51.204;6.766;2022-10-12T06:57:25;21.88;;;9.38;;
62050;SDS011;48008;51.204;6.766;2022-10-12T06:59:52;27.00;;;9.90;;
62050;SDS011;48008;51.204;6.766;2022-10-12T07:02:18;33.63;;;10.52;;
62050;SDS011;48008;51.204;6.766;2022-10-12T07:04:49;27.60;;;10.20;;
62050;SDS011;48008;51.204;6.766;2022-10-12T07:07:17;27.27;;;9.98;;
62050;SDS011;48008;51.204;6.766;2022-10-12T07:09:44;28.08;;;8.77;;
62050;SDS011;48008;51.204;6.766;2022-10-12T07:12:11;20.25;;;8.15;;
62050;SDS011;48008;51.204;6.766;2022-10-12T07:14:37;29.45;;;8.48;;
62050;SDS011;48008;51.204;6.766;2022-10-12T07:17:04;32.75;;;9.35;;
62050;SDS011;48008;51.204;6.766;2022-10-12T07:19:31;24.38;;;8.52;;
62050;SDS011;48008;51.204;6.766;2022-10-12T07:21:58;28.25;;;9.18;;
62050;SDS011;48008;51.204;6.766;2022-10-12T07:24:24;30.63;;;8.25;;
62050;SDS011;48008;51.204;6.766;2022-10-12T07:26:52;18.83;;;7.55;;
62050;SDS011;48008;51.204;6.766;2022-10-12T07:29:18;27.15;;;7.90;;
62050;SDS011;48008;51.204;6.766;2022-10-12T07:31:45;33.60;;;9.15;;
62050;SDS011;48008;51.204;6.766;2022-10-12T07:34:15;25.50;;;8.30;;
62050;SDS011;48008;51.204;6.766;2022-10-12T07:36:41;23.38;;;8.20;;
62050;SDS011;48008;51.204;6.766;2022-10-12T07:39:23;28.67;;;8.35;;
62050;SDS011;48008;51.204;6.766;2022-10-12T07:41:50;21.10;;;7.55;;
62050;SDS011;48008;51.204;6.766;2022-10-12T07:44:18;28.67;;;8.25;;
62050;SDS011;48008;51.204;6.766;2022-10-12T07:46:46;30.70;;;7.80;;
62050;SDS011;48008;51.204;6.766;2022-10-12T07:49:14;23.13;;;6.80;;
62050;SDS011;48008;51.204;6.766;2022-10-12T07:51:42;23.33;;;7.40;;
62050;SDS011;48008;51.204;6.766;2022-10-12T07:54:09;22.15;;;7.38;;
62050;SDS011;48008;51.204;6.766;2022-10-12T07:56:36;24.02;;;7.75;;
62050;SDS011;48008;51.204;6.766;2022-10-12T07:59:03;25.83;;;9.77;;
62050;SDS011;48008;51.204;6.766;2022-10-12T08:01:30;27.17;;;8.52;;
62050;SDS011;48008;51.204;6.766;2022-10-12T08:03:57;48.45;;;9.20;;
62050;SDS011;48008;51.204;6.766;2022-10-12T08:06:29;23.98;;;6.85;;
62050;SDS011;48008;51.204;6.766;2022-10-12T08:08:57;29.95;;;7.20;;
62050;SDS011;48008;51.204;6.766;2022-10-12T08:11:25;20.13;;;6.75;;
62050;SDS011;48008;51.204;6.766;2022-10-12T08:13:52;25.52;;;6.40;;
62050;SDS011;48008;51.204;6.766;2022-10-12T08:16:19;24.13;;;6.82;;
62050;SDS011;48008;51.204;6.766;2022-10-12T08:18:47;24.25;;;6.28;;
62050;SDS011;48008;51.204;6.766;2022-10-12T08:21:14;20.42;;;5.88;;
62050;SDS011;48008;51.204;6.766;2022-10-12T08:23:42;24.35;;;6.20;;
62050;SDS011;48008;51.204;6.766;2022-10-12T08:26:11;21.23;;;5.47;;
62050;SDS011;48008;51.204;6.766;2022-10-12T08:28:39;19.83;;;5.65;;
62050;SDS011;48008;51.204;6.766;2022-10-12T08:31:06;22.88;;;6.78;;
62050;SDS011;48008;51.204;6.766;2022-10-12T08:33:34;20.35;;;6.50;;
62050;SDS011;48008;51.204;6.766;2022-10-12T08:36:02;20.33;;;6.72;;
62050;SDS011;48008;51.204;6.766;2022-10-12T08:38:30;26.48;;;6.88;;
62050;SDS011;48008;51.204;6.766;2022-10-12T08:41:03;25.42;;;7.18;;
62050;SDS011;48008;51.204;6.766;2022-10-12T08:43:46;18.73;;;7.00;;
62050;SDS011;48008;51.204;6.766;2022-10-12T08:46:22;24.45;;;6.68;;
62050;SDS011;48008;51.204;6.766;2022-10-12T08:48:54;25.30;;;7.13;;
62050;SDS011;48008;51.204;6.766;2022-10-12T08:51:26;25.90;;;7.53;;
62050;SDS011;48008;51.204;6.766;2022-10-12T08:53:58;20.42;;;7.60;;
62050;SDS011;48008;51.204;6.766;2022-10-12T08:56:29;29.05;;;8.00;;
62050;SDS011;48008;51.204;6.766;2022-10-12T08:58:56;20.13;;;7.60;;
62050;SDS011;48008;51.204;6.766;2022-10-12T09:01:27;25.52;;;7.05;;
62050;SDS011;48008;51.204;6.766;2022-10-12T09:07:11;24.75;;;8.23;;
62050;SDS011;48008;51.204;6.766;2022-10-12T09:09:47;24.25;;;7.82;;
62050;SDS011;48008;51.204;6.766;2022-10-12T09:15:32;28.05;;;7.70;;
62050;SDS011;48008;51.204;6.766;2022-10-12T09:18:04;25.15;;;7.55;;
62050;SDS011;48008;51.204;6.766;2022-10-12T09:20:45;24.33;;;7.00;;
62050;SDS011;48008;51.204;6.766;2022-10-12T09:25:52;21.88;;;7.22;;
62050;SDS011;48008;51.204;6.766;2022-10-12T09:28:40;21.30;;;6.80;;
62050;SDS011;48008;51.204;6.766;2022-10-12T09:42:25;21.83;;;6.83;;
62050;SDS011;48008;51.204;6.766;2022-10-12T09:44:56;25.50;;;8.35;;
62050;SDS011;48008;51.204;6.766;2022-10-12T09:47:28;22.63;;;7.32;;
62050;SDS011;48008;51.204;6.766;2022-10-12T09:49:59;20.20;;;6.72;;
62050;SDS011;48008;51.204;6.766;2022-10-12T09:52:29;24.83;;;7.03;;
62050;SDS011;48008;51.204;6.766;2022-10-12T09:57:51;26.98;;;7.22;;
62050;SDS011;48008;51.204;6.766;2022-10-12T10:00:23;24.48;;;6.63;;
62050;SDS011;48008;51.204;6.766;2022-10-12T10:02:52;17.70;;;6.55;;
62050;SDS011;48008;51.204;6.766;2022-10-12T10:05:35;20.98;;;6.43;;
62050;SDS011;48008;51.204;6.766;2022-10-12T10:08:20;21.77;;;6.25;;
62050;SDS011;48008;51.204;6.766;2022-10-12T10:10:49;22.17;;;6.63;;
62050;SDS011;48008;51.204;6.766;2022-10-12T10:13:19;22.75;;;6.65;;
62050;SDS011;48008;51.204;6.766;2022-10-12T10:15:48;18.75;;;6.55;;
62050;SDS011;48008;51.204;6.766;2022-10-12T10:18:22;26.05;;;6.70;;
62050;SDS011;48008;51.204;6.766;2022-10-12T10:20:56;28.10;;;7.53;;
62050;SDS011;48008;51.204;6.766;2022-10-12T10:23:25;17.70;;;6.43;;
62050;SDS011;48008;51.204;6.766;2022-10-12T10:25:56;23.50;;;6.57;;
62050;SDS011;48008;51.204;6.766;2022-10-12T10:28:30;21.55;;;7.15;;
62050;SDS011;48008;51.204;6.766;2022-10-12T10:31:00;20.30;;;6.60;;
62050;SDS011;48008;51.204;6.766;2022-10-12T10:33:30;18.17;;;6.53;;
62050;SDS011;48008;51.204;6.766;2022-10-12T10:36:07;27.15;;;7.30;;
62050;SDS011;48008;51.204;6.766;2022-10-12T10:38:54;25.17;;;6.25;;
62050;SDS011;48008;51.204;6.766;2022-10-12T10:41:28;23.15;;;6.63;;
62050;SDS011;48008;51.204;6.766;2022-10-12T10:43:59;23.52;;;6.85;;
62050;SDS011;48008;51.204;6.766;2022-10-12T10:46:27;28.23;;;7.28;;
62050;SDS011;48008;51.204;6.766;2022-10-12T10:48:59;18.42;;;6.97;;
62050;SDS011;48008;51.204;6.766;2022-10-12T10:51:42;18.77;;;6.88;;
62050;SDS011;48008;51.204;6.766;2022-10-12T10:54:14;25.98;;;8.18;;
62050;SDS011;48008;51.204;6.766;2022-10-12T10:59:49;29.05;;;8.05;;
62050;SDS011;48008;51.204;6.766;2022-10-12T11:05:30;22.75;;;6.95;;
62050;SDS011;48008;51.204;6.766;2022-10-12T11:08:02;41.75;;;7.93;;
62050;SDS011;48008;51.204;6.766;2022-10-12T11:10:41;19.80;;;6.85;;
62050;SDS011;48008;51.204;6.766;2022-10-12T11:13:19;24.92;;;6.68;;
62050;SDS011;48008;51.204;6.766;2022-10-12T11:15:55;29.80;;;6.50;;
62050;SDS011;48008;51.204;6.766;2022-10-12T11:18:29;23.65;;;6.60;;
62050;SDS011;48008;51.204;6.766;2022-10-12T11:21:04;24.63;;;6.43;;
62050;SDS011;48008;51.204;6.766;2022-10-12T11:26:18;19.35;;;5.82;;
62050;SDS011;48008;51.204;6.766;2022-10-12T11:28:52;21.13;;;5.90;;
62050;SDS011;48008;51.204;6.766;2022-10-12T11:31:23;28.55;;;6.68;;
62050;SDS011;48008;51.204;6.766;2022-10-12T11:33:54;20.80;;;6.13;;
62050;SDS011;48008;51.204;6.766;2022-10-12T11:36:26;20.50;;;5.82;;
62050;SDS011;48008;51.204;6.766;2022-10-12T11:38:57;22.58;;;7.53;;
62050;SDS011;48008;51.204;6.766;2022-10-12T11:41:36;24.15;;;7.50;;
62050;SDS011;48008;51.204;6.766;2022-10-12T11:44:26;24.55;;;6.38;;
62050;SDS011;48008;51.204;6.766;2022-10-12T11:47:07;19.25;;;5.85;;
62050;SDS011;48008;51.204;6.766;2022-10-12T11:49:45;24.13;;;5.88;;
62050;SDS011;48008;51.204;6.766;2022-10-12T11:52:17;22.35;;;5.78;;
62050;SDS011;48008;51.204;6.766;2022-10-12T11:54:59;19.42;;;5.60;;
62050;SDS011;48008;51.204;6.766;2022-10-12T11:57:37;20.30;;;5.95;;
62050;SDS011;48008;51.204;6.766;2022-10-12T12:00:04;18.13;;;5.90;;
62050;SDS011;48008;51.204;6.766;2022-10-12T12:02:43;21.10;;;6.50;;
62050;SDS011;48008;51.204;6.766;2022-10-12T12:05:15;21.25;;;6.07;;
62050;SDS011;48008;51.204;6.766;2022-10-12T12:07:43;26.08;;;6.60;;
62050;SDS011;48008;51.204;6.766;2022-10-12T12:13:06;18.98;;;7.00;;
62050;SDS011;48008;51.204;6.766;2022-10-12T12:18:27;23.67;;;6.93;;
62050;SDS011;48008;51.204;6.766;2022-10-12T12:21:00;19.25;;;6.78;;
62050;SDS011;48008;51.204;6.766;2022-10-12T12:23:39;23.27;;;6.47;;
62050;SDS011;48008;51.204;6.766;2022-10-12T12:28:45;20.98;;;6.47;;
62050;SDS011;48008;51.204;6.766;2022-10-12T12:31:15;22.55;;;6.28;;
62050;SDS011;48008;51.204;6.766;2022-10-12T12:34:01;24.20;;;6.45;;
62050;SDS011;48008;51.204;6.766;2022-10-12T12:36:32;17.73;;;5.57;;
62050;SDS011;48008;51.204;6.766;2022-10-12T12:39:01;19.90;;;5.57;;
62050;SDS011;48008;51.204;6.766;2022-10-12T12:42:02;22.30;;;6.00;;
62050;SDS011;48008;51.204;6.766;2022-10-12T12:44:42;18.17;;;5.82;;
62050;SDS011;48008;51.204;6.766;2022-10-12T12:49:51;25.52;;;5.80;;
62050;SDS011;48008;51.204;6.766;2022-10-12T12:52:25;16.70;;;5.28;;
62050;SDS011;48008;51.204;6.766;2022-10-12T12:57:49;28.02;;;5.53;;
62050;SDS011;48008;51.204;6.766;2022-10-12T13:07:04;22.77;;;5.25;;
62050;SDS011;48008;51.204;6.766;2022-10-12T13:10:26;23.83;;;5.30;;
62050;SDS011;48008;51.204;6.766;2022-10-12T13:16:05;23.05;;;6.13;;
62050;SDS011;48008;51.204;6.766;2022-10-12T13:19:03;20.67;;;5.60;;
62050;SDS011;48008;51.204;6.766;2022-10-12T13:21:36;21.17;;;5.57;;
62050;SDS011;48008;51.204;6.766;2022-10-12T13:24:12;19.30;;;4.85;;
62050;SDS011;48008;51.204;6.766;2022-10-12T13:26:43;19.15;;;5.30;;
62050;SDS011;48008;51.204;6.766;2022-10-12T13:29:15;17.95;;;6.25;;
62050;SDS011;48008;51.204;6.766;2022-10-12T13:31:49;18.60;;;5.90;;
62050;SDS011;48008;51.204;6.766;2022-10-12T13:36:57;22.92;;;6.03;;
62050;SDS011;48008;51.204;6.766;2022-10-12T13:39:26;23.48;;;6.10;;
62050;SDS011;48008;51.204;6.766;2022-10-12T13:41:55;25.38;;;6.75;;
62050;SDS011;48008;51.204;6.766;2022-10-12T13:44:27;20.25;;;6.32;;
62050;SDS011;48008;51.204;6.766;2022-10-12T13:46:57;23.20;;;6.60;;
62050;SDS011;48008;51.204;6.766;2022-10-12T13:49:27;21.05;;;5.90;;
62050;SDS011;48008;51.204;6.766;2022-10-12T13:51:59;19.25;;;6.05;;
62050;SDS011;48008;51.204;6.766;2022-10-12T13:54:36;19.17;;;6.57;;
62050;SDS011;48008;51.204;6.766;2022-10-12T13:57:39;20.83;;;6.72;;
62050;SDS011;48008;51.204;6.766;2022-10-12T14:00:01;23.60;;;6.13;;
62050;SDS011;48008;51.204;6.766;2022-10-12T14:02:34;28.25;;;6.65;;
62050;SDS011;48008;51.204;6.766;2022-10-12T14:05:02;19.88;;;6.28;;
62050;SDS011;48008;51.204;6.766;2022-10-12T14:07:31;26.27;;;6.90;;
62050;SDS011;48008;51.204;6.766;2022-10-12T14:10:03;23.48;;;6.68;;
62050;SDS011;48008;51.204;6.766;2022-10-12T14:12:34;18.67;;;6.40;;
62050;SDS011;48008;51.204;6.766;2022-10-12T14:15:02;17.98;;;5.75;;
62050;SDS011;48008;51.204;6.766;2022-10-12T14:17:30;18.35;;;5.93;;
62050;SDS011;48008;51.204;6.766;2022-10-12T14:20:12;18.73;;;5.85;;
62050;SDS011;48008;51.204;6.766;2022-10-12T14:22:49;23.15;;;6.38;;
62050;SDS011;48008;51.204;6.766;2022-10-12T14:25:17;22.00;;;6.22;;
62050;SDS011;48008;51.204;6.766;2022-10-12T14:27:51;17.95;;;6.10;;
62050;SDS011;48008;51.204;6.766;2022-10-12T14:30:22;18.27;;;5.80;;
62050;SDS011;48008;51.204;6.766;2022-10-12T14:32:54;18.60;;;5.72;;
62050;SDS011;48008;51.204;6.766;2022-10-12T14:35:33;18.58;;;5.63;;
62050;SDS011;48008;51.204;6.766;2022-10-12T14:38:24;19.20;;;5.47;;
62050;SDS011;48008;51.204;6.766;2022-10-12T14:44:05;18.98;;;5.85;;
62050;SDS011;48008;51.204;6.766;2022-10-12T14:46:38;15.38;;;5.35;;
62050;SDS011;48008;51.204;6.766;2022-10-12T14:49:16;18.83;;;5.55;;
62050;SDS011;48008;51.204;6.766;2022-10-12T14:51:45;14.25;;;5.35;;
62050;SDS011;48008;51.204;6.766;2022-10-12T14:54:14;18.23;;;5.85;;
62050;SDS011;48008;51.204;6.766;2022-10-12T14:56:41;14.20;;;5.43;;
62050;SDS011;48008;51.204;6.766;2022-10-12T14:59:07;19.05;;;5.40;;
62050;SDS011;48008;51.204;6.766;2022-10-12T15:01:34;20.77;;;5.60;;
62050;SDS011;48008;51.204;6.766;2022-10-12T15:04:03;25.75;;;5.30;;
62050;SDS011;48008;51.204;6.766;2022-10-12T15:06:29;17.80;;;5.63;;
62050;SDS011;48008;51.204;6.766;2022-10-12T15:08:56;17.85;;;5.57;;
62050;SDS011;48008;51.204;6.766;2022-10-12T15:11:23;18.73;;;5.53;;
62050;SDS011;48008;51.204;6.766;2022-10-12T15:13:49;13.07;;;5.45;;
62050;SDS011;48008;51.204;6.766;2022-10-12T15:16:20;18.20;;;9.02;;
62050;SDS011;48008;51.204;6.766;2022-10-12T15:18:50;25.17;;;6.25;;
62050;SDS011;48008;51.204;6.766;2022-10-12T15:21:17;19.38;;;5.85;;
62050;SDS011;48008;51.204;6.766;2022-10-12T15:23:45;19.17;;;5.82;;
62050;SDS011;48008;51.204;6.766;2022-10-12T15:26:12;21.00;;;5.65;;
62050;SDS011;48008;51.204;6.766;2022-10-12T15:28:41;20.73;;;6.53;;
62050;SDS011;48008;51.204;6.766;2022-10-12T15:31:09;19.52;;;5.68;;
62050;SDS011;48008;51.204;6.766;2022-10-12T15:33:42;15.70;;;5.38;;
62050;SDS011;48008;51.204;6.766;2022-10-12T15:36:09;20.00;;;5.78;;
62050;SDS011;48008;51.204;6.766;2022-10-12T15:38:36;20.20;;;5.65;;
62050;SDS011;48008;51.204;6.766;2022-10-12T15:41:03;19.10;;;6.03;;
62050;SDS011;48008;51.204;6.766;2022-10-12T15:43:30;19.40;;;6.50;;
62050;SDS011;48008;51.204;6.766;2022-10-12T15:45:57;25.08;;;6.45;;
62050;SDS011;48008;51.204;6.766;2022-10-12T15:48:24;20.95;;;6.18;;
62050;SDS011;48008;51.204;6.766;2022-10-12T15:50:53;18.83;;;6.07;;
62050;SDS011;48008;51.204;6.766;2022-10-12T15:53:24;17.40;;;5.90;;
62050;SDS011;48008;51.204;6.766;2022-10-12T15:55:51;21.73;;;5.95;;
62050;SDS011;48008;51.204;6.766;2022-10-12T15:58:19;21.88;;;6.38;;
62050;SDS011;48008;51.204;6.766;2022-10-12T16:00:46;18.63;;;6.22;;
62050;SDS011;48008;51.204;6.766;2022-10-12T16:03:14;20.25;;;6.00;;
62050;SDS011;48008;51.204;6.766;2022-10-12T16:05:46;17.73;;;6.53;;
62050;SDS011;48008;51.204;6.766;2022-10-12T16:08:13;23.60;;;6.95;;
62050;SDS011;48008;51.204;6.766;2022-10-12T16:10:40;20.92;;;6.68;;
62050;SDS011;48008;51.204;6.766;2022-10-12T16:13:09;24.15;;;7.82;;
62050;SDS011;48008;51.204;6.766;2022-10-12T16:15:38;24.35;;;6.93;;
62050;SDS011;48008;51.204;6.766;2022-10-12T16:18:05;19.58;;;6.90;;